Tuesday, January 22, 2019, 5:02 PM EST
Back to Local

KPWM, Portland International Jetport

Location: Portland, ME, United States Lat: 43.65
Local Time: 5:02 PM EST (22:02 GMT) Lon: -70.3
Time Zone: US/Eastern Elev: 75 ft

Show me the last for .
Show Decoded

2019-01-22 16:51 METAR KPWM 222151Z 36007G15KT 320V100 10SM SCT200 M07/M19 A3050 RMK AO2 SLP330
                 T10671194 =
2019-01-22 15:51 METAR KPWM 222051Z 30010G15KT 10SM FEW200 M05/M21 A3049 RMK AO2 SLP324 T10501211
                 53023 =
2019-01-22 14:51 METAR KPWM 221951Z 31015G27KT 10SM FEW200 M05/M22 A3045 RMK AO2 PK WND
                 32029/1930 SLP312 T10501217 =
2019-01-22 13:51 METAR KPWM 221851Z 31018G28KT 10SM FEW180 M06/M23 A3043 RMK AO2 PK WND
                 31029/1835 SLP307 T10561228 $ =
2019-01-22 12:51 METAR KPWM 221751Z 31012G25KT 10SM CLR M06/M25 A3042 RMK AO2 PK WND 32035/1709
                 SLP301 T10611250 11061 21150 51006 $ =
2019-01-22 11:51 METAR KPWM 221651Z 32022G33KT 10SM CLR M07/M24 A3041 RMK AO2 PK WND 32035/1639
                 SLP298 T10721239 $ =
2019-01-22 10:51 METAR KPWM 221551Z 31019G28KT 10SM CLR M08/M24 A3041 RMK AO2 PK WND 32031/1540
                 SLP300 T10781244 $ =
2019-01-22 09:51 METAR KPWM 221451Z 32013G18KT 10SM CLR M10/M23 A3040 RMK AO2 PK WND 32028/1356
                 SLP295 T11001228 51040 $ =
2019-01-22 08:51 METAR KPWM 221351Z 31016G29KT 10SM CLR M12/M23 A3037 RMK AO2 PK WND 31029/1350
                 SLP286 T11171233 $ =
2019-01-22 07:51 METAR KPWM 221251Z 31011KT 10SM CLR M13/M23 A3033 RMK AO2 PK WND 32029/1204
                 SLP274 T11331228 $ =
2019-01-22 06:51 METAR KPWM 221151Z 30012G18KT 10SM CLR M15/M24 A3028 RMK AO2 SLP256 T11501239
                 11133 21172 52042 $ =
2019-01-22 05:51 METAR KPWM 221051Z 30006KT 10SM CLR M15/M25 A3024 RMK AO2 PK WND 32034/1007
                 SLP243 T11501250 $ =
2019-01-22 04:51 METAR KPWM 220951Z 35011G25KT 10SM CLR M14/M25 A3020 RMK AO2 PK WND 32027/0907
                 SLP227 T11391250 $ =
2019-01-22 03:51 METAR KPWM 220851Z AUTO 32012G18KT 10SM CLR M15/M24 A3016 RMK AO2 SLP214
                 T11501244 51033 $ =
2019-01-22 02:51 METAR KPWM 220751Z AUTO VRB05KT 10SM CLR M16/M23 A3013 RMK AO2 SLP206 T11561233
                 $ =
2019-01-22 01:51 METAR KPWM 220651Z AUTO VRB05KT 10SM CLR M16/M23 A3009 RMK AO2 SLP193 T11561228
                 $ =
2019-01-22 00:51 METAR KPWM 220551Z AUTO 30011KT 10SM CLR M16/M23 A3006 RMK AO2 SLP181 60000
                 T11561228 11150 21161 51027 $ =
2019-01-21 23:51 METAR KPWM 220451Z 28010KT 10SM BKN070 OVC090 M15/M22 A3003 RMK AO2 SLP173 LAST
                 T11501217 411171167 $ =
2019-01-21 22:51 METAR KPWM 220351Z 30010KT 10SM SCT070 BKN095 OVC120 M15/M21 A3000 RMK AO2
                 SNE0258 SLP162 P0000 T11501206 $ =
2019-01-21 21:51 METAR KPWM 220251Z 28012KT 5SM -SN BKN047 OVC110 M16/M21 A2998 RMK AO2 PK WND
                 31030/0158 SNB34 SLP154 P0000 60000 T11561206 53024 $ =
2019-01-21 20:51 METAR KPWM 220151Z 32012G41KT 9SM OVC100 M15/M22 A2995 RMK AO2 PK WND 32041/0146
                 SLP145 T11501222 $ =
2019-01-21 19:51 METAR KPWM 220051Z 31011G33KT 10SM OVC110 M16/M23 A2993 RMK AO2 PK WND
                 31033/0043 SLP137 T11561233 $ =
2019-01-21 18:51 METAR KPWM 212351Z 32016G27KT 9SM OVC065 M16/M24 A2991 RMK AO2 PK WND 31032/2341
                 SNE38 SLP130 P0000 60000 T11611244 11133 21167 51042 $ =
2019-01-21 17:51 METAR KPWM 212251Z 32015G27KT 4SM -SN OVC050 M17/M23 A2988 RMK AO2 PK WND
                 33030/2233 SNB31 SLP120 P0000 T11671233 $ =

Support USWX by starting your Amazon purchase here.